createdAt,value
2024-02-03T00:01:08.521Z,9.40
2024-02-03T00:06:11.593Z,12.40
2024-02-03T00:11:14.889Z,11.00
2024-02-03T00:16:19.486Z,13.00
2024-02-03T00:21:23.091Z,9.20
2024-02-03T00:26:26.127Z,10.00
2024-02-03T00:31:30.466Z,10.40
2024-02-03T00:36:33.378Z,9.80
2024-02-03T00:41:36.317Z,10.00
2024-02-03T00:46:40.589Z,11.40
2024-02-03T00:51:43.518Z,10.20
2024-02-03T00:56:46.394Z,11.00
2024-02-03T01:01:51.005Z,13.20
2024-02-03T01:06:57.248Z,11.40
2024-02-03T01:12:00.917Z,10.60
2024-02-03T01:17:05.960Z,9.80
2024-02-03T01:22:09.150Z,10.80
2024-02-03T01:27:12.049Z,11.00
2024-02-03T01:32:16.616Z,10.60
2024-02-03T01:37:19.518Z,8.00
2024-02-03T01:42:23.178Z,11.20
2024-02-03T01:47:27.467Z,9.40
2024-02-03T01:52:30.563Z,10.20
2024-02-03T01:57:33.735Z,8.40
2024-02-03T02:02:37.993Z,10.00
2024-02-03T02:07:44.628Z,11.00
2024-02-03T02:12:47.932Z,10.60
2024-02-03T02:17:57.833Z,12.80
2024-02-03T02:23:02.333Z,10.40
2024-02-03T02:28:05.950Z,8.80
2024-02-03T02:33:10.330Z,11.00
2024-02-03T02:38:14.737Z,10.20
2024-02-03T02:43:17.612Z,10.80
2024-02-03T02:48:20.658Z,11.40
2024-02-03T02:53:26.800Z,11.80
2024-02-03T02:58:29.892Z,9.60
2024-02-03T03:03:32.905Z,10.00
2024-02-03T03:08:37.196Z,9.60
2024-02-03T03:13:40.115Z,10.60
2024-02-03T03:18:43.108Z,10.00
2024-02-03T03:23:47.641Z,10.00
2024-02-03T03:28:50.470Z,10.00
2024-02-03T03:33:53.414Z,10.20
2024-02-03T03:38:57.709Z,10.00
2024-02-03T03:44:00.612Z,10.40
2024-02-03T03:49:03.508Z,10.00
2024-02-03T03:54:07.814Z,9.60
2024-02-03T03:59:10.647Z,10.00
2024-02-03T04:04:13.519Z,10.80
2024-02-03T04:09:17.891Z,11.00
2024-02-03T04:14:20.775Z,10.00
2024-02-03T04:19:23.761Z,8.00
2024-02-03T04:24:27.969Z,9.20
2024-02-03T04:29:30.746Z,10.60
2024-02-03T04:34:33.827Z,8.40
2024-02-03T04:39:38.259Z,8.80
2024-02-03T04:44:42.784Z,8.80
2024-02-03T04:49:45.822Z,10.00
2024-02-03T04:54:50.240Z,8.80
2024-02-03T04:59:53.085Z,10.00
2024-02-03T05:04:56.351Z,8.00
2024-02-03T05:10:00.920Z,8.00
2024-02-03T05:15:05.806Z,8.00
2024-02-03T05:20:10.237Z,10.40
2024-02-03T05:25:15.919Z,7.80
2024-02-03T05:30:18.956Z,9.60
2024-02-03T05:35:21.772Z,9.20
2024-02-03T05:40:26.106Z,9.00
2024-02-03T05:45:28.974Z,11.00
2024-02-03T05:50:31.808Z,8.20
2024-02-03T05:55:35.949Z,8.00
2024-02-03T06:00:38.901Z,7.00
2024-02-03T06:05:55.273Z,7.40
2024-02-03T06:11:06.056Z,9.40
2024-02-03T06:16:09.004Z,8.00
2024-02-03T06:21:13.570Z,9.00
2024-02-03T06:26:17.731Z,8.00
2024-02-03T06:31:20.735Z,8.80
2024-02-03T06:36:23.709Z,8.00
2024-02-03T06:41:28.111Z,9.80
2024-02-03T06:46:31.005Z,7.80
2024-02-03T06:51:33.834Z,9.80
2024-02-03T06:56:38.064Z,7.00
2024-02-03T07:01:41.116Z,8.00
2024-02-03T07:06:44.127Z,7.00
2024-02-03T07:11:56.939Z,5.40
2024-02-03T07:17:06.597Z,8.20
2024-02-03T07:22:09.542Z,7.40
2024-02-03T07:27:13.842Z,6.60
2024-02-03T07:32:16.738Z,8.00
2024-02-03T07:37:19.607Z,8.00
2024-02-03T07:42:23.861Z,5.60
2024-02-03T07:47:26.860Z,7.80
2024-02-03T07:52:29.720Z,5.00
2024-02-03T07:57:34.050Z,7.00
2024-02-03T08:02:36.929Z,8.60
2024-02-03T08:07:41.293Z,7.00
2024-02-03T08:12:45.514Z,7.00
2024-02-03T08:17:48.485Z,5.00
2024-02-03T08:22:53.180Z,4.00
2024-02-03T08:27:57.423Z,4.60
2024-02-03T08:33:00.336Z,4.00
2024-02-03T08:38:03.658Z,4.00
2024-02-03T08:43:07.985Z,4.20
2024-02-03T08:48:11.161Z,4.00
2024-02-03T08:53:14.243Z,4.00
2024-02-03T08:58:18.444Z,4.00
2024-02-03T09:03:21.303Z,4.20
2024-02-03T09:08:24.601Z,2.00
2024-02-03T09:13:28.856Z,4.20
2024-02-03T09:18:31.869Z,2.80
2024-02-03T09:23:34.820Z,4.00
2024-02-03T09:28:39.138Z,5.80
2024-02-03T09:33:42.172Z,3.60
2024-02-03T09:38:45.567Z,4.00
2024-02-03T09:43:50.560Z,2.40
2024-02-03T09:48:53.578Z,2.00
2024-02-03T09:53:56.676Z,1.40
2024-02-03T09:59:00.958Z,1.20
2024-02-03T10:04:04.259Z,4.00
2024-02-03T10:09:07.368Z,4.00
2024-02-03T10:14:11.670Z,2.00
2024-02-03T10:19:14.783Z,2.80
2024-02-03T10:24:22.404Z,4.00
2024-02-03T10:29:26.576Z,4.00
2024-02-03T10:34:29.610Z,5.40
2024-02-03T10:39:32.536Z,2.80
2024-02-03T10:44:36.842Z,1.00
2024-02-03T10:49:39.920Z,1.20
2024-02-03T10:54:43.021Z,2.00
2024-02-03T10:59:47.272Z,2.00
2024-02-03T11:04:50.881Z,4.80
2024-02-03T11:09:55.137Z,1.60
2024-02-03T11:14:59.861Z,4.00
2024-02-03T11:20:07.640Z,4.80
2024-02-03T11:25:10.807Z,4.40
2024-02-03T11:30:17.184Z,2.80
2024-02-03T11:35:22.776Z,2.00
2024-02-03T11:40:25.679Z,2.00
2024-02-03T11:45:31.090Z,2.00
2024-02-03T11:50:33.997Z,4.00
2024-02-03T11:55:36.849Z,4.00
2024-02-03T12:00:41.033Z,4.80
2024-02-03T12:05:45.201Z,4.60
2024-02-03T12:10:48.241Z,4.00
2024-02-03T12:15:52.721Z,2.00
2024-02-03T12:20:55.963Z,4.00
2024-02-03T12:25:58.828Z,5.40
2024-02-03T12:31:03.557Z,4.60
2024-02-03T12:36:09.313Z,3.60
2024-02-03T12:41:12.988Z,2.00
2024-02-03T12:46:17.606Z,1.60
2024-02-03T12:51:20.984Z,3.60
2024-02-03T12:56:24.114Z,3.00
2024-02-03T13:01:29.379Z,2.00
2024-02-03T13:06:32.314Z,2.00
2024-02-03T13:11:35.292Z,2.00
2024-02-03T13:16:39.481Z,2.00
2024-02-03T13:21:42.481Z,2.00
2024-02-03T13:26:45.394Z,2.00
2024-02-03T13:31:49.671Z,2.80
2024-02-03T13:36:52.908Z,2.00
2024-02-03T13:41:56.040Z,2.00
2024-02-03T13:47:00.318Z,2.00
2024-02-03T13:52:03.553Z,4.80
2024-02-03T13:57:06.840Z,2.00
2024-02-03T14:02:11.132Z,4.00
2024-02-03T14:07:14.111Z,2.80
2024-02-03T14:12:17.096Z,2.80
2024-02-03T14:17:21.387Z,2.00
2024-02-03T14:22:24.284Z,1.80
2024-02-03T14:27:30.775Z,2.80
2024-02-03T14:32:36.230Z,2.00
2024-02-03T14:37:40.618Z,2.00
2024-02-03T14:42:43.499Z,2.00
2024-02-03T14:47:48.883Z,3.20
2024-02-03T14:52:51.723Z,2.00
2024-02-03T14:57:54.594Z,3.60
2024-02-03T15:02:59.108Z,2.00
2024-02-03T15:08:02.210Z,2.00
2024-02-03T15:13:05.514Z,2.80
2024-02-03T15:18:10.145Z,4.00
2024-02-03T15:23:13.916Z,4.00
2024-02-03T15:28:16.918Z,8.00
2024-02-03T15:33:21.585Z,4.00
2024-02-03T15:38:25.020Z,4.00
2024-02-03T15:43:28.102Z,3.60
2024-02-03T15:48:32.665Z,1.60
2024-02-03T15:53:36.097Z,2.40
2024-02-03T15:58:39.044Z,2.00
2024-02-03T16:03:43.419Z,2.00
2024-02-03T16:08:47.058Z,2.00
2024-02-03T16:13:50.206Z,2.40
2024-02-03T16:18:54.468Z,1.80
2024-02-03T16:23:57.433Z,1.20
2024-02-03T16:29:00.395Z,2.00
2024-02-03T16:34:04.855Z,4.00
2024-02-03T16:39:07.847Z,1.80
2024-02-03T16:44:10.672Z,1.00
2024-02-03T16:49:15.001Z,2.00
2024-02-03T16:54:17.999Z,4.20
2024-02-03T16:59:20.843Z,3.60
2024-02-03T17:04:25.255Z,1.80
2024-02-03T17:09:28.221Z,2.80
2024-02-03T17:14:31.057Z,1.00
2024-02-03T17:19:35.369Z,2.00
2024-02-03T17:24:38.329Z,1.80
2024-02-03T17:29:41.748Z,1.60
2024-02-03T17:34:46.114Z,1.60
2024-02-03T17:39:49.168Z,1.00
2024-02-03T17:44:52.009Z,1.00
2024-02-03T17:49:56.361Z,1.60
2024-02-03T17:54:59.566Z,1.80
2024-02-03T18:00:02.565Z,2.80
2024-02-03T18:05:18.809Z,2.80
2024-02-03T18:10:21.797Z,4.00
2024-02-03T18:15:26.093Z,1.60
2024-02-03T18:20:30.413Z,1.00
2024-02-03T18:25:33.362Z,2.00
2024-02-03T18:30:36.266Z,1.40
2024-02-03T18:35:40.647Z,1.60
2024-02-03T18:40:43.743Z,2.80
2024-02-03T18:45:46.695Z,1.60
2024-02-03T18:50:51.038Z,4.00
2024-02-03T18:55:53.943Z,2.00
2024-02-03T19:00:56.928Z,2.00
2024-02-03T19:06:01.574Z,1.20
2024-02-03T19:11:05.005Z,3.80
2024-02-03T19:16:09.246Z,2.80
2024-02-03T19:21:13.582Z,2.00
2024-02-03T19:26:19.114Z,2.00
2024-02-03T19:31:22.152Z,1.60
2024-02-03T19:36:26.491Z,3.60
2024-02-03T19:41:29.479Z,4.00
2024-02-03T19:46:32.457Z,4.40
2024-02-03T19:51:36.977Z,1.20
2024-02-03T19:56:40.050Z,1.00
2024-02-03T20:01:43.247Z,1.20
2024-02-03T20:06:47.643Z,1.00
2024-02-03T20:11:50.624Z,1.00
2024-02-03T20:16:55.904Z,2.00
2024-02-03T20:22:00.244Z,2.00
2024-02-03T20:27:03.655Z,4.60
2024-02-03T20:32:07.182Z,1.80
2024-02-03T20:37:11.551Z,1.80
2024-02-03T20:42:16.559Z,1.40
2024-02-03T20:47:19.511Z,2.00
2024-02-03T20:52:23.736Z,2.00
2024-02-03T20:57:26.756Z,2.80
2024-02-03T21:02:29.794Z,1.00
2024-02-03T21:07:34.125Z,3.80
2024-02-03T21:12:37.732Z,2.00
2024-02-03T21:17:40.825Z,1.20
2024-02-03T21:22:45.167Z,2.00
2024-02-03T21:27:48.234Z,2.00
2024-02-03T21:32:51.923Z,1.40
2024-02-03T21:37:57.191Z,2.00
2024-02-03T21:43:00.133Z,1.40
2024-02-03T21:48:03.236Z,0.60
2024-02-03T21:53:07.502Z,1.40
2024-02-03T21:58:10.441Z,1.00
2024-02-03T22:03:13.655Z,1.00
2024-02-03T22:08:18.191Z,1.80
2024-02-03T22:13:21.134Z,2.00
2024-02-03T22:18:24.212Z,1.00
2024-02-03T22:23:28.533Z,1.80
2024-02-03T22:28:31.401Z,2.00
2024-02-03T22:33:34.368Z,1.60
2024-02-03T22:38:38.867Z,2.00
2024-02-03T22:43:41.731Z,3.00
2024-02-03T22:48:44.683Z,1.20
2024-02-03T22:53:49.001Z,1.00
2024-02-03T22:58:51.861Z,1.60
2024-02-03T23:03:54.979Z,1.80
2024-02-03T23:08:59.290Z,1.00
2024-02-03T23:14:02.378Z,1.00
2024-02-03T23:19:06.243Z,1.00
2024-02-03T23:24:10.705Z,1.00
2024-02-03T23:29:13.864Z,1.00
2024-02-03T23:34:17.007Z,1.60
2024-02-03T23:39:21.311Z,1.00
2024-02-03T23:44:24.591Z,1.00
2024-02-03T23:49:27.494Z,2.00
2024-02-03T23:54:31.976Z,1.00
2024-02-03T23:59:34.809Z,2.00
